Time;durP1;ratioP1;P1;durP2;ratioP2;P2;SDS_P1;SDS_P2;PMS_P1;PMS_P2;Temp;Humidity;BMP_temperature;BMP_pressure;BME280_temperature;BME280_humidity;BME280_pressure;Samples;Min_cycle;Max_cycle;Signal;HPM_P1;HPM_P2
2024/01/19 00:00:34;;;;;;;79.07;33.72;;;;;;;-0.59;100.00;100861.75;4989312;28;20441;-65
2024/01/19 00:02:59;;;;;;;78.05;36.00;;;;;;;-0.58;100.00;100862.63;4990104;28;20045;-64
2024/01/19 00:05:25;;;;;;;83.97;35.67;;;;;;;-0.57;100.00;100856.75;4982682;28;20165;-65
2024/01/19 00:07:50;;;;;;;79.28;32.65;;;;;;;-0.58;100.00;100860.94;4983681;28;20104;-65
2024/01/19 00:10:15;;;;;;;80.22;35.22;;;;;;;-0.58;100.00;100867.69;4989075;28;20455;-65
2024/01/19 00:12:41;;;;;;;77.25;32.13;;;;;;;-0.55;100.00;100878.84;4980525;28;20065;-65
2024/01/19 00:15:07;;;;;;;84.13;34.67;;;;;;;-0.54;100.00;100874.63;4983253;28;20053;-65
2024/01/19 00:17:33;;;;;;;79.00;34.20;;;;;;;-0.53;100.00;100874.66;4978075;28;20484;-65
2024/01/19 00:19:58;;;;;;;69.45;33.67;;;;;;;-0.52;100.00;100870.47;4985181;28;20049;-65
2024/01/19 00:22:24;;;;;;;76.55;34.15;;;;;;;-0.51;100.00;100879.81;4984015;28;20113;-65
2024/01/19 00:24:49;;;;;;;77.35;35.17;;;;;;;-0.49;100.00;100886.69;4992332;28;20042;-64
2024/01/19 00:27:14;;;;;;;65.68;30.65;;;;;;;-0.48;100.00;100888.41;4990672;28;20036;-65
2024/01/19 00:29:41;;;;;;;72.63;31.92;;;;;;;-0.49;100.00;100896.84;4990894;28;20054;-65
2024/01/19 00:32:07;;;;;;;71.65;34.67;;;;;;;-0.52;100.00;100890.78;4996352;28;20030;-65
2024/01/19 00:34:32;;;;;;;80.72;35.20;;;;;;;-0.53;100.00;100894.09;4985314;28;20031;-65
2024/01/19 00:36:57;;;;;;;70.47;33.58;;;;;;;-0.54;100.00;100900.00;4990938;28;20065;-65
2024/01/19 00:39:23;;;;;;;67.30;33.38;;;;;;;-0.59;100.00;100897.28;4990743;28;20125;-64
2024/01/19 00:41:48;;;;;;;68.57;32.10;;;;;;;-0.58;100.00;100905.78;4987079;28;20404;-65
2024/01/19 00:44:14;;;;;;;70.95;33.10;;;;;;;-0.59;100.00;100909.97;4986723;28;20057;-65
2024/01/19 00:46:39;;;;;;;65.10;32.97;;;;;;;-0.60;100.00;100915.84;4988484;28;20038;-65
2024/01/19 00:49:05;;;;;;;64.10;33.50;;;;;;;-0.61;100.00;100913.28;4993380;28;20034;-65
2024/01/19 00:51:30;;;;;;;71.65;33.10;;;;;;;-0.65;100.00;100916.47;4984873;28;20034;-65
2024/01/19 00:53:56;;;;;;;61.63;31.75;;;;;;;-0.64;100.00;100920.75;4985925;28;20026;-65
2024/01/19 00:56:21;;;;;;;63.80;33.65;;;;;;;-0.62;100.00;100922.56;4985748;28;20034;-65
2024/01/19 00:58:47;;;;;;;72.90;33.88;;;;;;;-0.64;100.00;100921.63;4985792;28;20038;-65
2024/01/19 01:01:13;;;;;;;89.25;33.10;;;;;;;-0.63;100.00;100930.97;4988687;28;20039;-65
2024/01/19 01:03:39;;;;;;;68.03;31.52;;;;;;;-0.65;100.00;100935.13;4987062;28;20085;-65
2024/01/19 01:06:05;;;;;;;66.35;31.75;;;;;;;-0.69;100.00;100930.72;4982582;28;20039;-65
2024/01/19 01:08:34;;;;;;;58.60;27.92;;;;;;;-0.75;100.00;100937.25;4979871;28;20038;-65
2024/01/19 01:11:00;;;;;;;56.63;27.10;;;;;;;-0.88;100.00;100943.50;4978979;28;20550;-65
2024/01/19 01:13:25;;;;;;;48.30;26.85;;;;;;;-1.04;100.00;100952.16;4983478;28;20034;-65
2024/01/19 01:15:51;;;;;;;52.42;26.98;;;;;;;-1.19;100.00;100955.72;4989316;28;20124;-65
2024/01/19 01:18:17;;;;;;;55.03;26.60;;;;;;;-1.37;100.00;100960.06;4988522;28;20124;-65
2024/01/19 01:20:45;;;;;;;52.28;25.25;;;;;;;-1.51;100.00;100959.47;4990905;28;20464;-65
2024/01/19 01:23:11;;;;;;;48.47;24.67;;;;;;;-1.67;100.00;100954.56;4986725;28;20046;-65
2024/01/19 01:25:37;;;;;;;51.90;26.35;;;;;;;-1.78;100.00;100961.69;4992868;28;20076;-65
2024/01/19 01:28:03;;;;;;;48.15;24.75;;;;;;;-1.90;100.00;100965.31;4986758;28;20034;-65
2024/01/19 01:30:28;;;;;;;54.08;26.73;;;;;;;-1.99;100.00;100959.84;4985742;28;20038;-65
2024/01/19 01:32:53;;;;;;;59.25;27.73;;;;;;;-2.14;100.00;100970.16;4983428;28;20048;-65
2024/01/19 01:35:19;;;;;;;48.20;25.30;;;;;;;-2.31;100.00;100971.94;4989043;28;20066;-65
2024/01/19 01:37:44;;;;;;;48.22;23.88;;;;;;;-2.41;100.00;100981.59;4981924;28;20085;-65
2024/01/19 01:40:13;;;;;;;50.85;25.58;;;;;;;-2.55;100.00;100990.16;4985959;28;20647;-64
2024/01/19 01:42:38;;;;;;;48.90;24.52;;;;;;;-2.64;100.00;100983.00;4983932;28;20082;-64
2024/01/19 01:45:05;;;;;;;43.05;22.75;;;;;;;-2.75;100.00;100984.16;4983938;28;20113;-65
2024/01/19 01:47:31;;;;;;;45.83;22.48;;;;;;;-2.87;100.00;100986.97;4987699;28;20038;-65
2024/01/19 01:49:57;;;;;;;52.20;18.88;;;;;;;-3.06;100.00;100996.09;4979041;28;20096;-64
2024/01/19 01:52:23;;;;;;;38.42;19.42;;;;;;;-3.15;100.00;100995.69;4978270;28;20174;-64
2024/01/19 01:54:51;;;;;;;39.35;20.70;;;;;;;-3.31;100.00;100994.03;4979493;28;20061;-64
2024/01/19 01:57:20;;;;;;;38.80;19.77;;;;;;;-3.41;100.00;101007.00;4983028;28;20047;-65
2024/01/19 01:59:46;;;;;;;42.47;20.17;;;;;;;-3.43;100.00;101009.47;4988897;28;20046;-65
2024/01/19 02:02:12;;;;;;;88.15;25.65;;;;;;;-3.43;100.00;101011.97;4990464;28;20046;-65
2024/01/19 02:04:38;;;;;;;86.82;25.23;;;;;;;-3.46;100.00;101016.88;4993952;28;20105;-64
2024/01/19 02:07:03;;;;;;;46.38;22.60;;;;;;;-3.50;100.00;101014.97;4984524;28;20121;-65
2024/01/19 02:09:29;;;;;;;43.35;20.63;;;;;;;-3.58;100.00;101026.34;4988537;28;20136;-65
2024/01/19 02:11:55;;;;;;;42.03;21.65;;;;;;;-3.65;100.00;101024.28;4993268;28;20038;-65
2024/01/19 02:14:20;;;;;;;44.53;21.17;;;;;;;-3.81;100.00;101027.66;4989601;28;20129;-65
2024/01/19 02:16:45;;;;;;;43.88;21.30;;;;;;;-3.90;100.00;101028.84;4992603;28;20058;-65
2024/01/19 02:19:11;;;;;;;63.47;23.60;;;;;;;-4.02;100.00;101036.66;4987170;28;20055;-64
2024/01/19 02:21:36;;;;;;;114.20;25.50;;;;;;;-4.20;100.00;101035.66;4983202;28;20042;-64
2024/01/19 02:24:11;;;;;;;147.35;26.35;;;;;;;-4.45;100.00;101038.47;4989132;28;20066;-64
2024/01/19 02:26:38;;;;;;;206.38;28.73;;;;;;;-4.65;100.00;101040.69;4987647;28;20104;-64
2024/01/19 02:29:04;;;;;;;53.67;17.52;;;;;;;-4.71;100.00;101048.81;4984669;28;20828;-64
2024/01/19 02:31:29;;;;;;;39.67;16.52;;;;;;;-4.71;100.00;101046.28;4995934;28;20022;-65
2024/01/19 02:33:55;;;;;;;32.25;16.38;;;;;;;-4.73;100.00;101045.34;4986318;28;20109;-64
2024/01/19 02:36:20;;;;;;;53.70;16.45;;;;;;;-4.83;100.00;101052.25;4987159;28;20050;-64
2024/01/19 02:38:46;;;;;;;182.48;24.88;;;;;;;-5.02;100.00;101051.22;4992138;28;20038;-64
2024/01/19 02:41:11;;;;;;;124.78;22.63;;;;;;;-5.20;100.00;101061.91;4991448;28;20089;-64
2024/01/19 02:43:36;;;;;;;46.28;18.00;;;;;;;-5.31;100.00;101067.94;4982381;28;20545;-65
2024/01/19 02:46:02;;;;;;;67.10;17.20;;;;;;;-5.35;100.00;101064.34;4989039;28;20029;-64
2024/01/19 02:48:27;;;;;;;28.70;16.00;;;;;;;-5.40;100.00;101067.38;4988156;28;20039;-64
2024/01/19 02:50:53;;;;;;;33.70;17.25;;;;;;;-5.38;100.00;101066.69;4992057;28;20113;-64
2024/01/19 02:53:18;;;;;;;34.08;19.13;;;;;;;-5.41;100.00;101065.66;4984472;28;20039;-64
2024/01/19 02:55:44;;;;;;;32.47;17.85;;;;;;;-5.48;100.00;101067.81;4983416;28;20121;-64
2024/01/19 02:58:09;;;;;;;39.70;17.92;;;;;;;-5.48;100.00;101064.41;4986814;28;20117;-64
2024/01/19 03:00:35;;;;;;;35.95;16.77;;;;;;;-5.44;100.00;101061.31;4990090;28;20034;-64
2024/01/19 03:03:00;;;;;;;33.22;17.70;;;;;;;-5.33;100.00;101066.97;4988137;28;20136;-64
2024/01/19 03:05:25;;;;;;;41.90;20.60;;;;;;;-5.21;100.00;101073.63;4991158;28;20043;-64
2024/01/19 03:07:51;;;;;;;61.03;24.27;;;;;;;-5.00;100.00;101086.59;4987519;28;20049;-64
2024/01/19 03:10:16;;;;;;;108.07;29.88;;;;;;;-4.87;100.00;101086.50;4985857;28;20495;-65
2024/01/19 03:12:42;;;;;;;119.72;31.98;;;;;;;-4.69;100.00;101086.69;4982546;28;20041;-65
2024/01/19 03:15:07;;;;;;;87.75;29.58;;;;;;;-4.56;100.00;101086.63;4983054;28;20922;-64
2024/01/19 03:17:33;;;;;;;69.72;26.83;;;;;;;-4.57;100.00;101088.25;4983657;28;20049;-64
2024/01/19 03:19:59;;;;;;;73.00;28.42;;;;;;;-4.52;100.00;101088.50;4990838;28;20042;-65
2024/01/19 03:22:25;;;;;;;67.50;26.90;;;;;;;-4.56;100.00;101099.22;4988853;28;20109;-64
2024/01/19 03:24:50;;;;;;;63.42;27.52;;;;;;;-4.45;100.00;101103.19;4989926;28;20117;-64
2024/01/19 03:27:16;;;;;;;64.93;28.52;;;;;;;-4.37;100.00;101099.44;4991068;28;20077;-64
2024/01/19 03:29:41;;;;;;;70.40;29.92;;;;;;;-4.22;100.00;101107.00;4986726;28;20039;-64
2024/01/19 03:32:06;;;;;;;66.60;28.35;;;;;;;-4.11;100.00;101113.50;4988593;28;20535;-64
2024/01/19 03:34:32;;;;;;;66.35;30.77;;;;;;;-3.99;100.00;101114.19;4992289;28;20033;-64
2024/01/19 03:37:03;;;;;;;73.32;30.45;;;;;;;-3.84;100.00;101115.88;4992380;28;20423;-64
2024/01/19 03:39:28;;;;;;;74.45;30.98;;;;;;;-3.71;100.00;101117.41;4993523;28;20034;-65
2024/01/19 03:41:55;;;;;;;65.35;29.15;;;;;;;-3.60;100.00;101121.38;4998157;28;20049;-65
2024/01/19 03:44:20;;;;;;;70.03;28.77;;;;;;;-3.50;100.00;101113.50;4990758;28;20630;-64
2024/01/19 03:46:46;;;;;;;66.85;29.42;;;;;;;-3.40;100.00;101109.81;4988611;28;20069;-64
2024/01/19 03:49:11;;;;;;;69.95;30.08;;;;;;;-3.32;100.00;101116.13;4996120;28;20368;-65
2024/01/19 03:51:37;;;;;;;72.13;29.80;;;;;;;-3.27;100.00;101119.75;4989006;28;20499;-65
2024/01/19 03:54:02;;;;;;;63.95;28.98;;;;;;;-3.18;100.00;101126.97;4983471;28;20510;-64
2024/01/19 03:56:28;;;;;;;68.35;28.08;;;;;;;-3.11;100.00;101116.38;4987301;28;20062;-64
2024/01/19 03:58:53;;;;;;;64.63;26.77;;;;;;;-3.03;100.00;101120.16;4990429;28;20610;-64
2024/01/19 04:01:18;;;;;;;58.30;26.42;;;;;;;-2.97;100.00;101118.81;4990609;28;20025;-64
2024/01/19 04:03:44;;;;;;;54.00;24.90;;;;;;;-2.93;100.00;101123.25;4989497;28;20048;-65
2024/01/19 04:06:10;;;;;;;61.60;27.80;;;;;;;-2.90;100.00;101117.47;4991127;28;20072;-64
2024/01/19 04:08:35;;;;;;;61.53;24.23;;;;;;;-3.03;100.00;101120.16;4984404;28;20041;-65
2024/01/19 04:11:01;;;;;;;43.63;22.80;;;;;;;-2.93;100.00;101128.28;4990310;28;20045;-65
2024/01/19 04:13:27;;;;;;;47.10;22.80;;;;;;;-2.88;100.00;101126.88;4990300;28;20368;-65
2024/01/19 04:15:52;;;;;;;47.78;20.65;;;;;;;-2.77;100.00;101124.88;4989253;28;20031;-65
2024/01/19 04:18:18;;;;;;;43.53;21.63;;;;;;;-2.82;100.00;101124.63;4988894;28;20515;-65
2024/01/19 04:20:43;;;;;;;46.10;19.50;;;;;;;-2.73;100.00;101127.63;4990458;28;20062;-65
2024/01/19 04:23:08;;;;;;;42.58;18.38;;;;;;;-2.63;100.00;101124.78;4990672;28;20417;-64
2024/01/19 04:25:34;;;;;;;47.15;17.60;;;;;;;-2.54;100.00;101133.63;4990874;28;20022;-65
2024/01/19 04:27:59;;;;;;;35.63;16.13;;;;;;;-2.45;100.00;101134.06;4990118;28;20073;-65
2024/01/19 04:30:25;;;;;;;32.42;15.25;;;;;;;-2.39;100.00;101136.91;4991050;28;20040;-64
2024/01/19 04:32:50;;;;;;;30.63;14.18;;;;;;;-2.34;100.00;101145.56;4990846;28;20035;-65
2024/01/19 04:35:16;;;;;;;29.70;15.68;;;;;;;-2.33;100.00;101137.19;4992979;28;20895;-65
2024/01/19 04:37:41;;;;;;;34.33;16.60;;;;;;;-2.31;100.00;101133.06;4985370;28;20231;-64
2024/01/19 04:40:07;;;;;;;33.25;16.27;;;;;;;-2.29;100.00;101136.53;4985354;28;20053;-65
2024/01/19 04:42:32;;;;;;;32.63;16.73;;;;;;;-2.25;100.00;101143.50;4982532;28;20054;-64
2024/01/19 04:44:58;;;;;;;36.25;16.30;;;;;;;-2.25;100.00;101146.91;4979290;28;20411;-65
2024/01/19 04:47:23;;;;;;;34.28;16.55;;;;;;;-2.28;100.00;101143.34;4992867;28;20062;-64
2024/01/19 04:49:49;;;;;;;35.15;16.42;;;;;;;-2.31;100.00;101143.19;4982980;28;20034;-65
2024/01/19 04:52:14;;;;;;;31.80;15.57;;;;;;;-2.24;100.00;101140.19;4987767;28;20034;-65
2024/01/19 04:54:40;;;;;;;35.10;16.48;;;;;;;-2.20;100.00;101149.63;4981646;28;20031;-64
2024/01/19 04:57:05;;;;;;;35.47;16.52;;;;;;;-2.19;100.00;101152.25;4987025;28;20034;-65
2024/01/19 04:59:31;;;;;;;32.17;14.70;;;;;;;-2.17;100.00;101147.25;4985510;28;20038;-65
2024/01/19 05:01:57;;;;;;;33.35;15.20;;;;;;;-2.15;100.00;101153.28;4984383;28;20041;-65
2024/01/19 05:04:22;;;;;;;31.90;14.20;;;;;;;-2.15;100.00;101146.56;4987925;28;20038;-65
2024/01/19 05:06:47;;;;;;;31.95;13.98;;;;;;;-2.15;100.00;101150.75;4986654;28;20033;-65
2024/01/19 05:09:14;;;;;;;28.95;13.70;;;;;;;-2.13;100.00;101151.69;4986572;28;20075;-65
2024/01/19 05:11:39;;;;;;;26.05;12.85;;;;;;;-2.07;100.00;101159.56;4997184;28;20354;-65
2024/01/19 05:14:06;;;;;;;25.13;12.63;;;;;;;-2.06;100.00;101157.09;4989613;28;20054;-65
2024/01/19 05:16:31;;;;;;;31.00;13.65;;;;;;;-2.03;100.00;101161.47;4989037;28;20085;-64
2024/01/19 05:18:57;;;;;;;28.67;12.90;;;;;;;-2.02;100.00;101162.31;4993747;28;20046;-65
2024/01/19 05:21:22;;;;;;;29.45;14.05;;;;;;;-2.00;100.00;101160.75;4980934;28;20512;-65
2024/01/19 05:23:47;;;;;;;27.90;13.10;;;;;;;-1.99;100.00;101168.41;4980588;28;20577;-64
2024/01/19 05:26:13;;;;;;;28.80;12.27;;;;;;;-2.02;100.00;101165.72;4984482;28;20038;-65
2024/01/19 05:28:39;;;;;;;23.35;11.40;;;;;;;-2.01;100.00;101167.47;4986217;28;20038;-64
2024/01/19 05:31:04;;;;;;;24.05;11.48;;;;;;;-2.03;100.00;101163.13;4982024;28;20045;-65
2024/01/19 05:33:30;;;;;;;27.88;12.02;;;;;;;-2.04;100.00;101163.91;4984923;28;20403;-65
2024/01/19 05:35:56;;;;;;;27.55;10.13;;;;;;;-2.11;100.00;101163.63;4980357;28;20049;-64
2024/01/19 05:38:22;;;;;;;23.27;10.98;;;;;;;-2.22;100.00;101163.91;4983310;28;20046;-64
2024/01/19 05:40:48;;;;;;;22.40;10.70;;;;;;;-2.28;100.00;101169.53;4981214;28;20042;-64
2024/01/19 05:43:13;;;;;;;23.50;11.32;;;;;;;-2.33;100.00;101173.50;4981498;28;20045;-64
2024/01/19 05:45:38;;;;;;;22.13;10.02;;;;;;;-2.33;100.00;101170.97;4983954;28;20042;-65
2024/01/19 05:48:04;;;;;;;20.15;9.52;;;;;;;-2.28;100.00;101178.78;4980929;28;20038;-65
2024/01/19 05:50:30;;;;;;;20.45;9.68;;;;;;;-2.23;100.00;101177.34;4978884;28;20035;-64
2024/01/19 05:52:57;;;;;;;23.48;8.88;;;;;;;-2.17;100.00;101187.78;4982598;28;20018;-65
2024/01/19 05:55:22;;;;;;;21.98;10.75;;;;;;;-2.13;100.00;101182.06;4979831;28;20381;-64
2024/01/19 05:57:48;;;;;;;29.42;11.85;;;;;;;-2.08;100.00;101188.22;4978971;28;20997;-65
2024/01/19 06:00:13;;;;;;;20.38;10.20;;;;;;;-2.03;100.00;101186.81;4979944;28;20376;-64
2024/01/19 06:02:39;;;;;;;21.38;9.85;;;;;;;-1.98;100.00;101197.13;4986955;28;20096;-65
2024/01/19 06:05:05;;;;;;;20.70;8.73;;;;;;;-1.93;100.00;101195.69;4990270;28;20025;-65
2024/01/19 06:07:32;;;;;;;20.17;8.48;;;;;;;-1.89;100.00;101202.66;4988820;28;20041;-64
2024/01/19 06:09:58;;;;;;;25.95;10.40;;;;;;;-1.86;100.00;101206.22;4985921;28;20108;-64
2024/01/19 06:12:23;;;;;;;27.65;11.05;;;;;;;-1.80;100.00;101208.16;4989030;28;20038;-64
2024/01/19 06:14:49;;;;;;;22.85;9.10;;;;;;;-1.77;100.00;101205.78;4983407;28;20578;-65
2024/01/19 06:17:15;;;;;;;17.58;9.02;;;;;;;-1.76;100.00;101205.00;4977189;28;20034;-64
2024/01/19 06:19:41;;;;;;;25.70;9.95;;;;;;;-1.74;100.00;101209.31;4987812;28;20034;-64
2024/01/19 06:22:06;;;;;;;23.02;9.88;;;;;;;-1.76;100.00;101203.28;4980723;28;20039;-64
2024/01/19 06:24:35;;;;;;;22.42;9.25;;;;;;;-1.75;100.00;101207.56;4982652;28;20049;-65
2024/01/19 06:27:00;;;;;;;24.65;10.60;;;;;;;-1.81;100.00;101207.28;4983387;28;20042;-64
2024/01/19 06:29:27;;;;;;;20.58;9.07;;;;;;;-1.87;100.00;101213.72;4985013;28;20081;-65
2024/01/19 06:31:52;;;;;;;20.88;9.32;;;;;;;-1.94;100.00;101224.38;4989771;28;20033;-65
2024/01/19 06:34:18;;;;;;;23.40;9.00;;;;;;;-1.99;100.00;101230.84;4982296;28;20050;-64
2024/01/19 06:36:46;;;;;;;19.33;8.30;;;;;;;-1.98;100.00;101240.19;4978144;28;20042;-64
2024/01/19 06:39:15;;;;;;;16.85;8.35;;;;;;;-1.95;100.00;101245.41;4978908;28;20053;-64
2024/01/19 06:41:44;;;;;;;18.77;9.60;;;;;;;-1.90;100.00;101246.50;4979755;28;20046;-65
2024/01/19 06:44:13;;;;;;;19.63;9.70;;;;;;;-1.84;100.00;101255.28;4984982;28;20083;-65
2024/01/19 06:46:43;;;;;;;23.67;9.90;;;;;;;-1.81;100.00;101252.88;4983646;28;20022;-64
2024/01/19 06:49:08;;;;;;;20.52;9.43;;;;;;;-1.84;100.00;101254.41;4984585;28;20049;-65
2024/01/19 06:51:34;;;;;;;20.38;9.50;;;;;;;-1.89;100.00;101256.72;4985569;28;20038;-65
2024/01/19 06:53:59;;;;;;;21.85;9.18;;;;;;;-1.90;100.00;101262.56;4989796;28;20050;-64
2024/01/19 06:56:24;;;;;;;17.83;8.52;;;;;;;-1.94;100.00;101265.78;4985034;28;20503;-65
2024/01/19 06:58:50;;;;;;;19.58;9.10;;;;;;;-2.04;100.00;101265.22;4990944;28;20050;-67
2024/01/19 07:01:15;;;;;;;24.65;9.55;;;;;;;-2.13;100.00;101265.63;4993779;28;20048;-66
2024/01/19 07:03:41;;;;;;;24.13;9.30;;;;;;;-2.17;100.00;101279.78;4997162;28;20404;-67
2024/01/19 07:06:06;;;;;;;19.50;8.23;;;;;;;-2.15;100.00;101288.38;4995403;28;20026;-67
2024/01/19 07:08:32;;;;;;;16.20;7.85;;;;;;;-2.12;100.00;101288.53;4993773;28;20034;-67
2024/01/19 07:10:57;;;;;;;20.75;8.88;;;;;;;-2.12;100.00;101295.25;4996593;28;20041;-67
2024/01/19 07:13:23;;;;;;;22.05;8.40;;;;;;;-2.12;100.00;101307.91;4984815;28;20034;-67
2024/01/19 07:15:48;;;;;;;21.75;7.82;;;;;;;-2.14;100.00;101307.81;4989047;28;20038;-67
2024/01/19 07:18:13;;;;;;;19.52;8.32;;;;;;;-2.12;100.00;101306.25;4987407;28;20853;-67
2024/01/19 07:20:39;;;;;;;20.15;8.43;;;;;;;-2.15;100.00;101313.69;4992591;28;20092;-66
2024/01/19 07:23:04;;;;;;;20.45;8.77;;;;;;;-2.13;100.00;101313.75;4994002;28;20034;-66
2024/01/19 07:25:30;;;;;;;23.60;9.57;;;;;;;-2.09;100.00;101319.06;4992462;28;20632;-67
2024/01/19 07:27:55;;;;;;;18.90;9.45;;;;;;;-2.03;100.00;101333.69;4989348;28;20069;-66
2024/01/19 07:30:21;;;;;;;24.65;9.77;;;;;;;-1.96;100.00;101338.25;4993431;28;20046;-66
2024/01/19 07:32:46;;;;;;;21.50;9.23;;;;;;;-1.92;100.00;101334.22;4991338;28;20449;-66
2024/01/19 07:35:12;;;;;;;23.23;11.23;;;;;;;-1.93;100.00;101342.59;4988952;28;20496;-66
2024/01/19 07:37:37;;;;;;;18.70;9.48;;;;;;;-2.00;100.00;101338.03;4996382;28;20034;-65
2024/01/19 07:40:03;;;;;;;18.65;9.25;;;;;;;-2.10;100.00;101337.56;4994826;28;20119;-66
2024/01/19 07:42:29;;;;;;;25.05;10.60;;;;;;;-2.17;100.00;101339.69;4992347;28;20372;-66
2024/01/19 07:44:54;;;;;;;18.77;8.55;;;;;;;-2.23;100.00;101350.38;4993892;28;20049;-65
2024/01/19 07:47:20;;;;;;;21.83;8.45;;;;;;;-2.26;100.00;101345.16;4994822;28;20062;-66
2024/01/19 07:49:45;;;;;;;21.67;9.27;;;;;;;-2.28;100.00;101353.47;4993397;28;20507;-66
2024/01/19 07:52:11;;;;;;;18.63;8.63;;;;;;;-2.33;100.00;101352.38;4997209;28;20042;-67
2024/01/19 07:54:36;;;;;;;18.38;9.07;;;;;;;-2.37;100.00;101356.41;4995783;28;20053;-67
2024/01/19 07:57:01;;;;;;;18.35;9.02;;;;;;;-2.40;100.00;101355.34;4993331;28;20407;-66
2024/01/19 07:59:27;;;;;;;19.05;8.90;;;;;;;-2.41;100.00;101366.28;4996661;28;20065;-66
2024/01/19 08:01:52;;;;;;;17.95;8.40;;;;;;;-2.42;100.00;101379.72;4994618;28;20061;-66
2024/01/19 08:04:18;;;;;;;24.50;11.00;;;;;;;-2.39;100.00;101377.34;4991346;28;20038;-67
2024/01/19 08:06:43;;;;;;;22.20;11.05;;;;;;;-2.38;100.00;101374.91;4999305;28;20030;-67
2024/01/19 08:09:11;;;;;;;19.50;10.30;;;;;;;-2.40;100.00;101383.19;4991045;28;20053;-67
2024/01/19 08:11:36;;;;;;;26.15;10.88;;;;;;;-2.41;100.00;101392.44;4995273;28;20053;-67
2024/01/19 08:14:02;;;;;;;22.38;10.30;;;;;;;-2.42;100.00;101392.38;4995825;28;20034;-67
2024/01/19 08:16:27;;;;;;;21.70;10.30;;;;;;;-2.45;100.00;101394.75;4992008;28;20113;-67
2024/01/19 08:18:53;;;;;;;26.80;11.40;;;;;;;-2.56;100.00;101404.28;4990812;28;20406;-67
2024/01/19 08:21:18;;;;;;;26.52;10.45;;;;;;;-2.69;100.00;101405.31;4992990;28;20041;-67
2024/01/19 08:23:44;;;;;;;21.85;11.10;;;;;;;-2.70;100.00;101401.03;4991479;28;20027;-67
2024/01/19 08:26:09;;;;;;;21.58;10.20;;;;;;;-2.67;100.00;101408.78;4990559;28;20037;-66
2024/01/19 08:28:34;;;;;;;22.58;10.52;;;;;;;-2.66;100.00;101415.59;4990636;28;20031;-67
2024/01/19 08:31:00;;;;;;;23.30;10.85;;;;;;;-2.55;100.00;101421.22;4996551;28;20041;-67
2024/01/19 08:33:25;;;;;;;36.00;12.48;;;;;;;-2.57;100.00;101417.75;4994008;28;20042;-67
2024/01/19 08:35:51;;;;;;;27.35;10.65;;;;;;;-2.56;100.00;101423.69;4993802;28;20034;-66
2024/01/19 08:38:16;;;;;;;22.27;10.32;;;;;;;-2.56;100.00;101431.28;4991025;28;20082;-67
2024/01/19 08:40:42;;;;;;;25.98;10.95;;;;;;;-2.48;100.00;101435.97;4992805;28;20080;-66
2024/01/19 08:43:08;;;;;;;24.33;10.93;;;;;;;-2.36;100.00;101444.22;4986475;28;20130;-67
2024/01/19 08:45:33;;;;;;;22.60;10.90;;;;;;;-2.26;100.00;101446.44;4993699;28;20499;-65
2024/01/19 08:47:59;;;;;;;24.73;10.18;;;;;;;-2.21;100.00;101442.50;4991882;28;20157;-66
2024/01/19 08:50:24;;;;;;;26.38;12.15;;;;;;;-2.17;100.00;101440.97;4994535;28;20165;-67
2024/01/19 08:52:50;;;;;;;26.65;10.13;;;;;;;-2.07;100.00;101444.09;4988471;28;20340;-66
2024/01/19 08:55:16;;;;;;;28.13;12.43;;;;;;;-1.88;100.00;101445.06;4984528;28;20548;-67
2024/01/19 08:57:41;;;;;;;35.80;14.13;;;;;;;-1.47;100.00;101440.44;4984777;28;20037;-66
2024/01/19 09:00:07;;;;;;;31.38;13.27;;;;;;;-1.15;100.00;101450.50;4995241;28;20041;-67
2024/01/19 09:02:33;;;;;;;24.55;12.70;;;;;;;-1.10;100.00;101446.53;4996302;28;20045;-66
2024/01/19 09:04:59;;;;;;;34.92;14.30;;;;;;;-1.11;100.00;101441.38;4994508;28;20543;-66
2024/01/19 09:07:25;;;;;;;33.20;12.50;;;;;;;-1.06;100.00;101450.09;4993863;28;20049;-67
2024/01/19 09:09:50;;;;;;;28.85;12.98;;;;;;;-1.05;100.00;101454.38;4989076;28;20042;-67
2024/01/19 09:12:16;;;;;;;29.55;14.10;;;;;;;-1.11;100.00;101454.94;4991671;28;20042;-67
2024/01/19 09:14:41;;;;;;;30.60;13.60;;;;;;;-1.13;100.00;101453.97;4982587;28;20042;-66
2024/01/19 09:17:07;;;;;;;29.70;12.82;;;;;;;-1.02;100.00;101462.97;4983985;28;20440;-67
2024/01/19 09:19:32;;;;;;;25.30;13.10;;;;;;;-0.69;100.00;101465.44;4993718;28;20023;-67
2024/01/19 09:21:57;;;;;;;32.20;14.63;;;;;;;-0.35;100.00;101453.50;4989080;28;20023;-67
2024/01/19 09:24:24;;;;;;;27.92;13.85;;;;;;;-0.18;100.00;101459.34;4990406;28;20026;-67
2024/01/19 09:26:49;;;;;;;30.13;13.07;;;;;;;0.01;100.00;101469.53;4988971;28;20088;-67
2024/01/19 09:29:14;;;;;;;27.45;13.38;;;;;;;0.15;100.00;101464.28;4986165;28;20299;-66
2024/01/19 09:31:42;;;;;;;35.92;13.13;;;;;;;0.34;100.00;101468.50;4993897;28;20610;-66
2024/01/19 09:34:07;;;;;;;25.98;12.70;;;;;;;0.43;100.00;101480.75;4987265;28;20034;-66
2024/01/19 09:36:32;;;;;;;23.27;11.65;;;;;;;0.41;100.00;101484.91;4993965;28;20038;-66
2024/01/19 09:38:58;;;;;;;28.67;12.98;;;;;;;0.55;100.00;101494.00;4987627;28;20069;-65
2024/01/19 09:41:48;;;;;;;30.10;11.88;;;;;;;0.72;100.00;101487.94;4986726;28;20038;-66
2024/01/19 09:44:17;;;;;;;21.02;11.48;;;;;;;0.87;99.92;101482.63;4986878;28;20508;-66
2024/01/19 09:47:17;;;;;;;22.63;11.43;;;;;;;1.01;99.43;101489.16;4989093;28;20398;-66
2024/01/19 09:50:05;;;;;;;22.08;11.00;;;;;;;1.17;98.91;101497.50;4988993;28;20046;-67
2024/01/19 09:52:52;;;;;;;27.55;12.10;;;;;;;1.36;98.65;101495.69;4985446;28;20721;-66
2024/01/19 09:55:19;;;;;;;26.17;12.85;;;;;;;1.38;96.98;101488.97;4982458;28;20872;-67
2024/01/19 09:57:46;;;;;;;28.25;12.65;;;;;;;1.12;95.88;101496.41;4984303;28;20515;-67
2024/01/19 10:00:14;;;;;;;27.05;12.93;;;;;;;0.67;95.78;101509.78;4990165;28;20407;-67
2024/01/19 10:02:45;;;;;;;31.90;12.52;;;;;;;0.69;96.47;101529.41;4989874;28;20026;-67
2024/01/19 10:05:14;;;;;;;27.60;12.32;;;;;;;0.86;97.35;101544.50;4989979;28;20046;-67
2024/01/19 10:07:41;;;;;;;25.48;12.52;;;;;;;1.05;97.91;101550.44;4990167;28;20072;-67
2024/01/19 10:10:08;;;;;;;28.08;13.18;;;;;;;1.23;96.87;101540.16;4989437;28;20038;-67
2024/01/19 10:12:34;;;;;;;27.77;12.88;;;;;;;1.48;97.65;101553.06;4987757;28;20181;-67
2024/01/19 10:15:00;;;;;;;27.45;14.30;;;;;;;1.57;97.08;101533.06;4982104;28;20027;-67
2024/01/19 10:17:26;;;;;;;31.23;13.60;;;;;;;1.62;95.14;101520.53;4984614;28;20042;-67
2024/01/19 10:19:53;;;;;;;30.90;12.48;;;;;;;1.64;93.01;101491.75;4984707;28;20487;-67
2024/01/19 10:22:27;;;;;;;29.50;13.18;;;;;;;1.75;93.81;101520.19;4993809;28;20030;-66
2024/01/19 10:25:08;;;;;;;32.22;15.40;;;;;;;1.96;94.74;101531.22;4986211;28;20061;-67
2024/01/19 10:27:47;;;;;;;31.52;14.10;;;;;;;2.39;93.48;101516.72;4989607;28;20035;-66
2024/01/19 10:30:21;;;;;;;32.10;15.27;;;;;;;2.55;91.77;101487.47;4992921;28;20056;-67
2024/01/19 10:32:49;;;;;;;38.03;15.43;;;;;;;2.55;92.13;101513.00;4995141;28;20041;-67
2024/01/19 10:35:17;;;;;;;35.58;14.18;;;;;;;2.46;90.73;101497.38;4996509;28;20053;-66
2024/01/19 10:37:44;;;;;;;38.65;15.63;;;;;;;2.40;92.35;101526.06;4993545;28;20494;-67
2024/01/19 10:40:23;;;;;;;32.38;15.10;;;;;;;2.28;93.12;101547.75;5001648;28;20030;-66
2024/01/19 10:42:54;;;;;;;32.67;14.52;;;;;;;2.23;93.91;101559.44;5002624;28;20034;-66
2024/01/19 10:45:23;;;;;;;34.47;15.32;;;;;;;2.18;94.03;101561.81;5001894;28;20042;-64
2024/01/19 10:47:50;;;;;;;29.42;15.50;;;;;;;2.25;94.27;101570.59;4999388;28;20114;-66
2024/01/19 10:50:17;;;;;;;36.53;16.73;;;;;;;2.40;94.20;101564.34;4995897;28;20034;-66
2024/01/19 10:52:52;;;;;;;36.10;15.40;;;;;;;2.55;93.58;101546.19;4991137;28;20113;-64
2024/01/19 10:55:22;;;;;;;37.75;17.33;;;;;;;2.59;93.56;101545.47;4992200;28;20042;-64
2024/01/19 10:58:03;;;;;;;31.20;16.27;;;;;;;2.60;91.66;101531.06;4990192;28;20053;-66
2024/01/19 11:00:29;;;;;;;33.65;15.45;;;;;;;2.55;92.87;101553.84;4990099;28;20061;-65